Accueil
METAR-TAF:

METAR-TAF

Aéroports :

Hofu, Japon

latitude: 34-02N, longitude: 131-33E, altitude: 2 m

Observation

Le bulletin a été fait il y a 5 heures et 37 minutes, à 03:11 UTC
Vent 10 kt de ouest
Température 28°C
Humidité 55%
Pression 1014 hPa
Visibilité 10 km ou plus
Quelques nuages à une hauteur de 2000 ft
Nuages épars à une hauteur de 3500 ft
Nuages fragmentés à une hauteur de 27000 ft

METAR: RJOF 220311Z 28010KT 9999 FEW020 SCT035 BKN270 28/18 Q1014 RMK 1CU020 4CU035 A2995

Heure: 17:48 (08:48 UTC)


TAF: absent

Observations et prévisions météorologiques de plus de 4000 aéroports (messages METAR et TAF).

Les stations disponibles sont représentées par des disques jaunes et rouges sur la carte.

Passer la souris dessus pour voir le nom de la station.

Cliquer dessus pour voir les observations et prévisions météorologiques.

Pour changer de carte: cliquez sur les boutons verts avec une croix noire pour zoomer, sur le bouton vert avec un tiret pour effectuer un zoom arrière, ou sur les flèches vertes pour les cartes adjacentes.


METAR-TAF: